createdAt,value
2023-03-29T00:00:38.705Z,973.3907
2023-03-29T00:01:40.139Z,973.3054
2023-03-29T00:02:53.386Z,973.2145
2023-03-29T00:03:43.066Z,973.1127
2023-03-29T00:04:44.436Z,973.1292
2023-03-29T00:05:45.945Z,973.1746
2023-03-29T00:06:47.284Z,973.2323
2023-03-29T00:07:48.729Z,973.3177
2023-03-29T00:08:50.167Z,973.3677
2023-03-29T00:09:51.563Z,973.3615
2023-03-29T00:10:52.998Z,973.3553
2023-03-29T00:11:54.422Z,973.3315
2023-03-29T00:12:55.848Z,973.3531
2023-03-29T00:13:57.298Z,973.4031
2023-03-29T00:14:58.722Z,973.4816
2023-03-29T00:16:00.145Z,973.5707
2023-03-29T00:17:01.613Z,973.6639
2023-03-29T00:18:02.999Z,973.7523
2023-03-29T00:19:04.443Z,973.7923
2023-03-29T00:20:05.854Z,973.8208
2023-03-29T00:21:07.302Z,973.8730
2023-03-29T00:22:08.741Z,973.9308
2023-03-29T00:23:10.171Z,973.9547
2023-03-29T00:24:11.560Z,973.9438
2023-03-29T00:25:13.074Z,973.9208
2023-03-29T00:26:14.489Z,973.8931
2023-03-29T00:27:15.889Z,973.9238
2023-03-29T00:28:17.336Z,973.9569
2023-03-29T00:29:18.801Z,973.9753
2023-03-29T00:30:20.159Z,973.9654
2023-03-29T00:31:21.646Z,973.9385
2023-03-29T00:32:23.051Z,973.9246
2023-03-29T00:33:24.475Z,973.8977
2023-03-29T00:34:25.899Z,973.9100
2023-03-29T00:35:27.360Z,973.9577
2023-03-29T00:36:28.771Z,974.0131
2023-03-29T00:37:30.217Z,974.0923
2023-03-29T00:38:31.773Z,974.1492
2023-03-29T00:39:33.032Z,974.2518
2023-03-29T00:40:34.466Z,974.2946
2023-03-29T00:41:35.914Z,974.3492
2023-03-29T00:42:37.363Z,974.3516
2023-03-29T00:43:38.749Z,974.2877
2023-03-29T00:44:40.171Z,974.2508
2023-03-29T00:45:41.588Z,974.2277
2023-03-29T00:46:43.117Z,974.2323
2023-03-29T00:47:44.542Z,974.1977
2023-03-29T00:48:45.922Z,974.1385
2023-03-29T00:49:47.300Z,974.0931
2023-03-29T00:50:48.772Z,974.0638
2023-03-29T00:51:50.177Z,974.0508
2023-03-29T00:52:51.602Z,974.0200
2023-03-29T00:53:53.032Z,973.9746
2023-03-29T00:54:54.457Z,973.9246
2023-03-29T00:55:55.886Z,973.9092
2023-03-29T00:56:57.430Z,973.9215
2023-03-29T00:57:58.742Z,973.9000
2023-03-29T00:59:00.172Z,973.9153
2023-03-29T01:00:01.609Z,973.9392
2023-03-29T01:01:03.316Z,973.9269
2023-03-29T01:02:04.503Z,973.9169
2023-03-29T01:03:05.961Z,973.8846
2023-03-29T01:04:07.312Z,973.8269
2023-03-29T01:05:08.719Z,973.7869
2023-03-29T01:06:10.126Z,973.7385
2023-03-29T01:07:11.632Z,973.7054
2023-03-29T01:08:12.992Z,973.6823
2023-03-29T01:09:14.428Z,973.6600
2023-03-29T01:10:15.844Z,973.6223
2023-03-29T01:11:17.524Z,973.5823
2023-03-29T01:12:18.704Z,973.5723
2023-03-29T01:13:20.110Z,973.5615
2023-03-29T01:14:21.542Z,973.5731
2023-03-29T01:15:23.020Z,973.5746
2023-03-29T01:16:24.420Z,973.5446
2023-03-29T01:17:25.919Z,973.5038
2023-03-29T01:18:27.269Z,973.4823
2023-03-29T01:19:28.726Z,973.4669
2023-03-29T01:20:30.133Z,973.4615
2023-03-29T01:21:31.610Z,973.4569
2023-03-29T01:22:33.008Z,973.4485
2023-03-29T01:23:34.431Z,973.4300
2023-03-29T01:24:35.865Z,973.4084
2023-03-29T01:25:37.293Z,973.3854
2023-03-29T01:26:38.722Z,973.3877
2023-03-29T01:27:40.160Z,973.4161
2023-03-29T01:28:41.547Z,973.4615
2023-03-29T01:29:42.992Z,973.4577
2023-03-29T01:30:44.423Z,973.3700
2023-03-29T01:31:45.976Z,973.2923
2023-03-29T01:32:47.293Z,973.2623
2023-03-29T01:33:48.738Z,973.2315
2023-03-29T01:34:50.098Z,973.1854
2023-03-29T01:35:51.589Z,973.1177
2023-03-29T01:36:52.951Z,973.0708
2023-03-29T01:37:54.450Z,973.0923
2023-03-29T01:38:55.817Z,973.0831
2023-03-29T01:39:57.254Z,973.0900
2023-03-29T01:40:58.663Z,973.0715
2023-03-29T01:42:00.102Z,973.0792
2023-03-29T01:43:01.560Z,973.0739
2023-03-29T01:44:03.011Z,973.0615
2023-03-29T01:45:04.384Z,973.0416
2023-03-29T01:46:05.830Z,973.0146
2023-03-29T01:47:07.270Z,973.0046
2023-03-29T01:48:08.691Z,972.9684
2023-03-29T01:49:10.087Z,972.9200
2023-03-29T01:50:11.550Z,972.8969
2023-03-29T01:51:12.947Z,972.8715
2023-03-29T01:52:14.391Z,972.8638
2023-03-29T01:53:15.824Z,972.8262
2023-03-29T01:54:17.244Z,972.7438
2023-03-29T01:55:18.659Z,972.6685
2023-03-29T01:56:20.101Z,972.6208
2023-03-29T01:57:21.536Z,972.6446
2023-03-29T01:58:22.946Z,972.6685
2023-03-29T01:59:24.341Z,972.6731
2023-03-29T02:00:25.796Z,972.6447
2023-03-29T02:01:27.248Z,972.6539
2023-03-29T02:02:28.754Z,972.6523
2023-03-29T02:03:30.140Z,972.6577
2023-03-29T02:04:31.492Z,972.6600
2023-03-29T02:05:32.922Z,972.6315
2023-03-29T02:06:34.445Z,972.5977
2023-03-29T02:07:35.761Z,972.5977
2023-03-29T02:08:37.229Z,972.5938
2023-03-29T02:09:38.630Z,972.5762
2023-03-29T02:10:40.080Z,972.5731
2023-03-29T02:11:41.466Z,972.6092
2023-03-29T02:12:42.929Z,972.5847
2023-03-29T02:13:44.441Z,972.5608
2023-03-29T02:14:45.867Z,972.5215
2023-03-29T02:15:47.386Z,972.5046
2023-03-29T02:16:48.702Z,972.4808
2023-03-29T02:17:50.174Z,972.4323
2023-03-29T02:18:51.543Z,972.3593
2023-03-29T02:19:52.984Z,972.3615
2023-03-29T02:20:54.398Z,972.3546
2023-03-29T02:21:55.813Z,972.3561
2023-03-29T02:22:57.278Z,972.3392
2023-03-29T02:23:58.676Z,972.3384
2023-03-29T02:25:00.132Z,972.3200
2023-03-29T02:26:01.521Z,972.2969
2023-03-29T02:27:02.949Z,972.2747
2023-03-29T02:28:04.384Z,972.2777
2023-03-29T02:29:05.806Z,972.3092
2023-03-29T02:30:07.238Z,972.3577
2023-03-29T02:31:08.687Z,972.3692
2023-03-29T02:32:10.073Z,972.3715
2023-03-29T02:33:11.625Z,972.4000
2023-03-29T02:34:12.977Z,972.4446
2023-03-29T02:35:14.339Z,972.4615
2023-03-29T02:36:15.779Z,972.4554
2023-03-29T02:37:17.193Z,972.4554
2023-03-29T02:38:18.660Z,972.4477
2023-03-29T02:39:20.049Z,972.4392
2023-03-29T02:40:21.490Z,972.4046
2023-03-29T02:41:22.893Z,972.3792
2023-03-29T02:42:24.318Z,972.3615
2023-03-29T02:43:26.139Z,972.3339
2023-03-29T02:44:27.160Z,972.3308
2023-03-29T02:45:28.618Z,972.2808
2023-03-29T02:46:30.055Z,972.2454
2023-03-29T02:47:31.506Z,972.2646
2023-03-29T02:48:32.945Z,972.2700
2023-03-29T02:49:34.309Z,972.2892
2023-03-29T02:50:35.733Z,972.2592
2023-03-29T02:51:37.160Z,972.2292
2023-03-29T02:52:38.590Z,972.2369
2023-03-29T02:53:40.052Z,972.2215
2023-03-29T02:54:41.437Z,972.1915
2023-03-29T02:55:42.964Z,972.1808
2023-03-29T02:56:44.334Z,972.1754
2023-03-29T02:57:45.755Z,972.1362
2023-03-29T02:58:47.183Z,972.1077
2023-03-29T02:59:48.604Z,972.0992
2023-03-29T03:00:50.005Z,972.1031
2023-03-29T03:01:51.512Z,972.1046
2023-03-29T03:02:52.965Z,972.1138
2023-03-29T03:03:54.354Z,972.1246
2023-03-29T03:04:55.757Z,972.1023
2023-03-29T03:05:57.161Z,972.0885
2023-03-29T03:06:58.576Z,972.0731
2023-03-29T03:08:00.013Z,972.0461
2023-03-29T03:09:02.022Z,972.0562
2023-03-29T03:10:02.887Z,972.0577
2023-03-29T03:11:04.507Z,972.0192
2023-03-29T03:12:05.734Z,971.9954
2023-03-29T03:13:07.168Z,971.9985
2023-03-29T03:14:08.606Z,972.0015
2023-03-29T03:15:10.024Z,972.0338
2023-03-29T03:16:11.456Z,972.0677
2023-03-29T03:17:12.859Z,972.0862
2023-03-29T03:18:14.294Z,972.0846
2023-03-29T03:19:15.740Z,972.0908
2023-03-29T03:20:17.147Z,972.1200
2023-03-29T03:21:18.589Z,972.1262
2023-03-29T03:22:20.006Z,972.1469
2023-03-29T03:23:21.489Z,972.1569
2023-03-29T03:24:22.860Z,972.1561
2023-03-29T03:25:24.259Z,972.1500
2023-03-29T03:26:25.692Z,972.1592
2023-03-29T03:27:27.147Z,972.1846
2023-03-29T03:28:28.653Z,972.2192
2023-03-29T03:29:30.006Z,972.2523
2023-03-29T03:30:31.464Z,972.2747
2023-03-29T03:31:32.928Z,972.2715
2023-03-29T03:32:34.327Z,972.2708
2023-03-29T03:33:35.726Z,972.2615
2023-03-29T03:34:37.148Z,972.2708
2023-03-29T03:35:38.589Z,972.2708
2023-03-29T03:36:39.984Z,972.2338
2023-03-29T03:37:41.408Z,972.2600
2023-03-29T03:38:42.869Z,972.2485
2023-03-29T03:39:44.274Z,972.2177
2023-03-29T03:40:45.702Z,972.2031
2023-03-29T03:41:47.155Z,972.2084
2023-03-29T03:42:48.541Z,972.1969
2023-03-29T03:43:49.970Z,972.2085
2023-03-29T03:44:51.427Z,972.2023
2023-03-29T03:45:52.927Z,972.1723
2023-03-29T03:46:54.251Z,972.1777
2023-03-29T03:47:55.675Z,972.1539
2023-03-29T03:48:57.161Z,972.1538
2023-03-29T03:49:58.534Z,972.1300
2023-03-29T03:51:00.052Z,972.1285
2023-03-29T03:52:01.389Z,972.1292
2023-03-29T03:53:02.808Z,972.1177
2023-03-29T03:54:04.292Z,972.1300
2023-03-29T03:55:05.691Z,972.1354
2023-03-29T03:56:07.090Z,972.1577
2023-03-29T03:57:08.528Z,972.1692
2023-03-29T03:58:09.962Z,972.1877
2023-03-29T03:59:11.400Z,972.2354
2023-03-29T04:00:12.804Z,972.3215
2023-03-29T04:01:14.237Z,972.3770
2023-03-29T04:02:15.735Z,972.3593
2023-03-29T04:03:17.263Z,972.3262
2023-03-29T04:04:18.552Z,972.2846
2023-03-29T04:05:20.024Z,972.2823
2023-03-29T04:06:21.363Z,972.2938
2023-03-29T04:07:22.820Z,972.2677
2023-03-29T04:08:24.233Z,972.2792
2023-03-29T04:09:25.696Z,972.2700
2023-03-29T04:10:27.100Z,972.2546
2023-03-29T04:11:28.538Z,972.2308
2023-03-29T04:12:29.981Z,972.2161
2023-03-29T04:13:31.384Z,972.2708
2023-03-29T04:14:32.808Z,972.2669
2023-03-29T04:15:34.304Z,972.2869
2023-03-29T04:16:35.663Z,972.3631
2023-03-29T04:17:37.201Z,972.3870
2023-03-29T04:18:38.593Z,972.3970
2023-03-29T04:19:39.988Z,972.4454
2023-03-29T04:20:41.376Z,972.5677
2023-03-29T04:21:42.823Z,972.6538
2023-03-29T04:22:44.325Z,972.7023
2023-03-29T04:23:45.678Z,972.6923
2023-03-29T04:24:47.100Z,972.6016
2023-03-29T04:25:48.528Z,972.5762
2023-03-29T04:26:49.958Z,972.6969
2023-03-29T04:27:51.389Z,972.7685
2023-03-29T04:28:52.797Z,972.7839
2023-03-29T04:29:54.267Z,972.7646
2023-03-29T04:30:55.658Z,972.7408
2023-03-29T04:31:57.096Z,972.7400
2023-03-29T04:32:58.606Z,972.7415
2023-03-29T04:34:00.514Z,972.7031
2023-03-29T04:35:01.441Z,972.6877
2023-03-29T04:36:02.837Z,972.6500
2023-03-29T04:37:04.220Z,972.6539
2023-03-29T04:38:05.652Z,972.6484
2023-03-29T04:39:07.104Z,972.5739
2023-03-29T04:40:08.540Z,972.4969
2023-03-29T04:41:10.963Z,972.4660
2023-03-29T04:42:11.459Z,972.4931
2023-03-29T04:43:12.804Z,972.6215
2023-03-29T04:44:14.218Z,972.7031
2023-03-29T04:45:15.722Z,972.6870
2023-03-29T04:46:17.148Z,972.7408
2023-03-29T04:47:18.500Z,972.8177
2023-03-29T04:48:19.937Z,972.8862
2023-03-29T04:49:21.802Z,972.9285
2023-03-29T04:50:22.797Z,972.8870
2023-03-29T04:51:24.237Z,972.8531
2023-03-29T04:52:25.662Z,972.8177
2023-03-29T04:53:27.080Z,972.7538
2023-03-29T04:54:28.536Z,972.5908
2023-03-29T04:55:29.925Z,972.4985
2023-03-29T04:56:31.375Z,972.4908
2023-03-29T04:57:32.793Z,972.4546
2023-03-29T04:58:34.230Z,972.4208
2023-03-29T04:59:35.664Z,972.4123
2023-03-29T05:00:37.090Z,972.4592
2023-03-29T05:01:42.738Z,972.4900
2023-03-29T05:02:39.316Z,972.5214
2023-03-29T05:03:41.365Z,972.6914
2023-03-29T05:04:42.873Z,972.8292
2023-03-29T05:05:44.211Z,972.8877
2023-03-29T05:06:45.632Z,972.8300
2023-03-29T05:07:47.083Z,972.8177
2023-03-29T05:08:48.471Z,972.7677
2023-03-29T05:09:49.924Z,972.7231
2023-03-29T05:10:51.325Z,972.7392
2023-03-29T05:11:52.772Z,972.8031
2023-03-29T05:12:54.461Z,972.8846
2023-03-29T05:13:55.633Z,972.9292
2023-03-29T05:14:57.013Z,972.9677
2023-03-29T05:15:58.490Z,973.0115
2023-03-29T05:16:59.905Z,973.0784
2023-03-29T05:18:01.374Z,973.0500
2023-03-29T05:19:02.755Z,973.0300
2023-03-29T05:20:04.182Z,972.9908
2023-03-29T05:21:05.613Z,972.9300
2023-03-29T05:22:07.044Z,972.8815
2023-03-29T05:23:08.426Z,972.8554
2023-03-29T05:24:09.909Z,972.8531
2023-03-29T05:25:11.318Z,972.8977
2023-03-29T05:26:12.729Z,972.8200
2023-03-29T05:27:14.181Z,972.7146
2023-03-29T05:28:15.589Z,972.6754
2023-03-29T05:29:17.017Z,972.6531
2023-03-29T05:30:18.433Z,972.6577
2023-03-29T05:31:19.919Z,972.5946
2023-03-29T05:32:22.097Z,972.6392
2023-03-29T05:33:22.749Z,972.6654
2023-03-29T05:34:24.155Z,972.7000
2023-03-29T05:35:25.545Z,972.6246
2023-03-29T05:36:26.993Z,972.5500
2023-03-29T05:37:28.404Z,972.6270
2023-03-29T05:38:29.829Z,972.7208
2023-03-29T05:39:31.253Z,972.7938
2023-03-29T05:40:32.725Z,972.8308
2023-03-29T05:41:34.116Z,972.7961
2023-03-29T05:42:35.552Z,972.8069
2023-03-29T05:43:37.000Z,972.7916
2023-03-29T05:44:38.454Z,972.7062
2023-03-29T05:45:39.818Z,972.6769
2023-03-29T05:46:41.305Z,972.6407
2023-03-29T05:47:42.847Z,972.6454
2023-03-29T05:48:44.079Z,972.5992
2023-03-29T05:49:45.639Z,972.5277
2023-03-29T05:50:47.040Z,972.5369
2023-03-29T05:51:48.377Z,972.5469
2023-03-29T05:52:49.783Z,972.5200
2023-03-29T05:53:51.215Z,972.5223
2023-03-29T05:54:52.633Z,972.5569
2023-03-29T05:55:54.106Z,972.5523
2023-03-29T05:56:55.534Z,972.5069
2023-03-29T05:57:56.925Z,972.4108
2023-03-29T05:58:58.363Z,972.4208
2023-03-29T05:59:59.818Z,972.4208
2023-03-29T06:01:01.479Z,972.4039
2023-03-29T06:02:02.737Z,972.3631
2023-03-29T06:03:17.651Z,972.3561
2023-03-29T06:04:05.504Z,972.3858
2023-03-29T06:05:06.996Z,972.5192
2023-03-29T06:06:08.343Z,972.6439
2023-03-29T06:07:09.785Z,972.7269
2023-03-29T06:08:11.210Z,972.7839
2023-03-29T06:09:12.628Z,972.8062
2023-03-29T06:10:14.064Z,972.7585
2023-03-29T06:11:15.468Z,972.7100
2023-03-29T06:12:16.931Z,972.6708
2023-03-29T06:13:18.328Z,972.6439
2023-03-29T06:14:19.755Z,972.6923
2023-03-29T06:15:21.313Z,972.7161
2023-03-29T06:16:22.765Z,972.7085
2023-03-29T06:17:24.219Z,972.6823
2023-03-29T06:18:25.565Z,972.6800
2023-03-29T06:19:26.974Z,972.6769
2023-03-29T06:20:28.400Z,972.7739
2023-03-29T06:21:29.829Z,972.8777
2023-03-29T06:22:31.250Z,972.9669
2023-03-29T06:23:32.666Z,972.9554
2023-03-29T06:24:34.087Z,972.8200
2023-03-29T06:25:35.514Z,972.7231
2023-03-29T06:26:36.962Z,972.7123
2023-03-29T06:27:38.377Z,972.7315
2023-03-29T06:28:39.782Z,972.7084
2023-03-29T06:29:41.249Z,972.6885
2023-03-29T06:30:42.642Z,972.7338
2023-03-29T06:31:44.154Z,972.7831
2023-03-29T06:32:45.554Z,972.8307
2023-03-29T06:33:46.965Z,972.8646
2023-03-29T06:34:48.362Z,972.8400
2023-03-29T06:35:49.907Z,972.8154
2023-03-29T06:36:51.202Z,972.7492
2023-03-29T06:37:52.644Z,972.6815
2023-03-29T06:38:54.082Z,972.6561
2023-03-29T06:39:55.505Z,972.6970
2023-03-29T06:40:56.948Z,972.7154
2023-03-29T06:41:58.351Z,972.6892
2023-03-29T06:42:59.762Z,972.7146
2023-03-29T06:44:01.218Z,972.7069
2023-03-29T06:45:02.666Z,972.7192
2023-03-29T06:46:04.138Z,972.7600
2023-03-29T06:47:05.577Z,972.7231
2023-03-29T06:48:06.972Z,972.6646
2023-03-29T06:49:08.350Z,972.6092
2023-03-29T06:50:09.798Z,972.6185
2023-03-29T06:51:11.201Z,972.6031
2023-03-29T06:52:12.665Z,972.5923
2023-03-29T06:53:14.060Z,972.6331
2023-03-29T06:54:15.469Z,972.7054
2023-03-29T06:55:16.878Z,972.7400
2023-03-29T06:56:18.335Z,972.7946
2023-03-29T06:57:19.848Z,972.8138
2023-03-29T06:58:21.175Z,972.8992
2023-03-29T06:59:22.628Z,972.8770
2023-03-29T07:00:24.038Z,972.8408
2023-03-29T07:01:25.486Z,972.7769
2023-03-29T07:02:26.947Z,972.7015
2023-03-29T07:03:28.319Z,972.6423
2023-03-29T07:04:29.831Z,972.5900
2023-03-29T07:05:31.174Z,972.5184
2023-03-29T07:06:32.605Z,972.5100
2023-03-29T07:07:34.028Z,972.5715
2023-03-29T07:08:35.442Z,972.6123
2023-03-29T07:09:36.874Z,972.6161
2023-03-29T07:10:38.357Z,972.6385
2023-03-29T07:11:39.747Z,972.6870
2023-03-29T07:12:41.146Z,972.7269
2023-03-29T07:13:42.807Z,972.7854
2023-03-29T07:14:46.242Z,972.8292
2023-03-29T07:15:45.425Z,972.8354
2023-03-29T07:16:47.104Z,972.7892
2023-03-29T07:17:48.289Z,972.7238
2023-03-29T07:18:49.701Z,972.6870
2023-03-29T07:19:51.109Z,972.6385
2023-03-29T07:20:52.594Z,972.5784
2023-03-29T07:21:54.014Z,972.5877
2023-03-29T07:22:55.405Z,972.6838
2023-03-29T07:23:56.820Z,972.7754
2023-03-29T07:24:58.244Z,972.8439
2023-03-29T07:25:59.649Z,972.8630
2023-03-29T07:27:04.486Z,972.8031
2023-03-29T07:28:02.499Z,972.7400
2023-03-29T07:29:03.925Z,972.7092
2023-03-29T07:30:05.348Z,972.7007
2023-03-29T07:31:06.814Z,972.7377
2023-03-29T07:32:08.290Z,972.7916
2023-03-29T07:33:09.782Z,972.8954
2023-03-29T07:34:11.134Z,973.0123
2023-03-29T07:35:12.529Z,973.0515
2023-03-29T07:36:13.993Z,973.0900
2023-03-29T07:37:15.371Z,973.1008
2023-03-29T07:38:16.828Z,973.0777
2023-03-29T07:39:18.206Z,973.0608
2023-03-29T07:40:19.639Z,973.0038
2023-03-29T07:41:21.050Z,972.8915
2023-03-29T07:42:22.493Z,972.8362
2023-03-29T07:43:23.902Z,972.8492
2023-03-29T07:44:25.333Z,972.8770
2023-03-29T07:45:28.587Z,972.8516
2023-03-29T07:46:28.225Z,972.8023
2023-03-29T07:47:29.649Z,972.8177
2023-03-29T07:48:31.024Z,972.7977
2023-03-29T07:49:32.464Z,972.7485
2023-03-29T07:50:33.877Z,972.7385
2023-03-29T07:51:35.315Z,972.7969
2023-03-29T07:52:36.735Z,972.8661
2023-03-29T07:53:38.174Z,972.8754
2023-03-29T07:54:39.600Z,972.7869
2023-03-29T07:55:41.001Z,972.7062
2023-03-29T07:56:42.449Z,972.7131
2023-03-29T07:57:43.857Z,972.6962
2023-03-29T07:58:45.297Z,972.6653
2023-03-29T07:59:46.723Z,972.6661
2023-03-29T08:00:48.151Z,972.6862
2023-03-29T08:01:49.567Z,972.6654
2023-03-29T08:02:51.025Z,972.6915
2023-03-29T08:03:52.550Z,972.6746
2023-03-29T08:04:54.032Z,972.6323
2023-03-29T08:05:55.283Z,972.6200
2023-03-29T08:06:56.695Z,972.6415
2023-03-29T08:07:58.125Z,972.6500
2023-03-29T08:08:59.554Z,972.6616
2023-03-29T08:10:01.001Z,972.6677
2023-03-29T08:11:02.585Z,972.6354
2023-03-29T08:12:03.822Z,972.6408
2023-03-29T08:13:05.257Z,972.6392
2023-03-29T08:14:06.710Z,972.6454
2023-03-29T08:15:08.194Z,972.6369
2023-03-29T08:16:09.542Z,972.5931
2023-03-29T08:17:11.050Z,972.5615
2023-03-29T08:18:12.470Z,972.5308
2023-03-29T08:19:13.810Z,972.5554
2023-03-29T08:20:15.249Z,972.5569
2023-03-29T08:21:16.665Z,972.5700
2023-03-29T08:22:18.102Z,972.5762
2023-03-29T08:23:19.538Z,972.5785
2023-03-29T08:24:21.174Z,972.5623
2023-03-29T08:25:22.383Z,972.5508
2023-03-29T08:26:23.803Z,972.5846
2023-03-29T08:27:25.214Z,972.5977
2023-03-29T08:28:26.684Z,972.6246
2023-03-29T08:29:28.082Z,972.6646
2023-03-29T08:30:29.519Z,972.6731
2023-03-29T08:31:31.004Z,972.6615
2023-03-29T08:32:32.383Z,972.6346
2023-03-29T08:33:33.809Z,972.5954
2023-03-29T08:34:35.205Z,972.6108
2023-03-29T08:35:36.662Z,972.6600
2023-03-29T08:36:38.060Z,972.7261
2023-03-29T08:37:39.491Z,972.7438
2023-03-29T08:38:40.986Z,972.7739
2023-03-29T08:39:42.359Z,972.7985
2023-03-29T08:40:43.761Z,972.8346
2023-03-29T08:41:45.171Z,972.8931
2023-03-29T08:42:46.596Z,972.8877
2023-03-29T08:43:48.050Z,972.8792
2023-03-29T08:44:49.470Z,972.9292
2023-03-29T08:45:51.236Z,972.9215
2023-03-29T08:46:52.358Z,972.8808
2023-03-29T08:47:53.818Z,972.9123
2023-03-29T08:48:55.197Z,972.9562
2023-03-29T08:49:56.597Z,972.9577
2023-03-29T08:50:58.022Z,972.9547
2023-03-29T08:51:59.451Z,972.9584
2023-03-29T08:53:00.866Z,973.0038
2023-03-29T08:54:02.326Z,973.0592
2023-03-29T08:55:03.732Z,973.1069
2023-03-29T08:56:05.201Z,973.1270
2023-03-29T08:57:06.589Z,973.1323
2023-03-29T08:58:08.004Z,973.1608
2023-03-29T08:59:09.483Z,973.1546
2023-03-29T09:00:10.867Z,973.1123
2023-03-29T09:01:12.344Z,973.0654
2023-03-29T09:02:13.749Z,973.0469
2023-03-29T09:03:15.213Z,973.0877
2023-03-29T09:04:16.605Z,973.1000
2023-03-29T09:05:18.049Z,973.1023
2023-03-29T09:06:19.454Z,973.1123
2023-03-29T09:07:20.889Z,973.0992
2023-03-29T09:08:22.302Z,973.1230
2023-03-29T09:09:23.750Z,973.1246
2023-03-29T09:10:25.183Z,973.1377
2023-03-29T09:11:26.627Z,973.1223
2023-03-29T09:12:28.013Z,973.0823
2023-03-29T09:13:29.535Z,973.0446
2023-03-29T09:14:30.873Z,973.0831
2023-03-29T09:15:32.391Z,973.1161
2023-03-29T09:16:33.764Z,973.0515
2023-03-29T09:17:35.186Z,973.0239
2023-03-29T09:18:36.632Z,973.0038
2023-03-29T09:19:38.030Z,973.0062
2023-03-29T09:20:39.516Z,973.0139
2023-03-29T09:21:40.872Z,973.0139
2023-03-29T09:22:42.313Z,973.0023
2023-03-29T09:23:43.744Z,973.0192
2023-03-29T09:24:45.177Z,973.0292
2023-03-29T09:25:53.554Z,973.0131
2023-03-29T09:26:48.041Z,973.0142
2023-03-29T09:27:49.461Z,973.0108
2023-03-29T09:28:50.896Z,973.0023
2023-03-29T09:29:52.299Z,973.0284
2023-03-29T09:30:53.750Z,973.0692
2023-03-29T09:31:55.153Z,973.0977
2023-03-29T09:32:56.652Z,973.0708
2023-03-29T09:33:57.994Z,972.9992
2023-03-29T09:34:59.444Z,972.9662
2023-03-29T09:36:00.899Z,972.9500
2023-03-29T09:37:02.272Z,972.9569
2023-03-29T09:38:03.702Z,972.9146
2023-03-29T09:39:05.157Z,972.9046
2023-03-29T09:40:06.568Z,972.8515
2023-03-29T09:41:07.997Z,972.8454
2023-03-29T09:42:09.494Z,972.8484
2023-03-29T09:43:10.853Z,972.8092
2023-03-29T09:44:20.773Z,972.7808
2023-03-29T09:45:13.718Z,972.7592
2023-03-29T09:46:15.216Z,972.7562
2023-03-29T09:47:16.547Z,972.7331
2023-03-29T09:48:17.957Z,972.5646
2023-03-29T09:49:19.409Z,972.5515
2023-03-29T09:50:30.960Z,972.5792
2023-03-29T09:51:22.342Z,972.5883
2023-03-29T09:52:23.690Z,972.6008
2023-03-29T09:53:25.126Z,972.5708
2023-03-29T09:54:26.534Z,972.8146
2023-03-29T09:55:27.967Z,972.8408
2023-03-29T09:56:29.400Z,972.8523
2023-03-29T09:57:30.943Z,972.8469
2023-03-29T09:58:32.239Z,972.8416
2023-03-29T09:59:33.684Z,972.8400
2023-03-29T10:00:35.105Z,972.8185
2023-03-29T10:01:36.553Z,972.8300
2023-03-29T10:02:38.036Z,972.8385
2023-03-29T10:03:39.404Z,972.8254
2023-03-29T10:04:40.881Z,972.8377
2023-03-29T10:05:42.245Z,972.8823
2023-03-29T10:06:43.676Z,972.9261
2023-03-29T10:07:45.149Z,972.9639
2023-03-29T10:08:46.522Z,972.9946
2023-03-29T10:09:47.980Z,972.9661
2023-03-29T10:10:49.392Z,972.9554
2023-03-29T10:11:50.875Z,973.0200
2023-03-29T10:12:52.256Z,973.0785
2023-03-29T10:13:53.700Z,973.1192
2023-03-29T10:14:55.193Z,973.1038
2023-03-29T10:15:56.549Z,973.0739
2023-03-29T10:16:58.046Z,973.0285
2023-03-29T10:17:59.607Z,973.0092
2023-03-29T10:19:00.932Z,972.9738
2023-03-29T10:20:04.217Z,972.9123
2023-03-29T10:21:04.146Z,972.8885
2023-03-29T10:22:05.223Z,972.8831
2023-03-29T10:23:06.648Z,972.8908
2023-03-29T10:24:08.071Z,972.9092
2023-03-29T10:25:09.491Z,972.9100
2023-03-29T10:26:10.910Z,972.9246
2023-03-29T10:27:12.325Z,972.9577
2023-03-29T10:28:13.764Z,973.0023
2023-03-29T10:29:15.169Z,973.0654
2023-03-29T10:30:16.626Z,973.1223
2023-03-29T10:31:18.075Z,973.1447
2023-03-29T10:32:19.483Z,973.1623
2023-03-29T10:33:20.930Z,973.2031
2023-03-29T10:34:22.319Z,973.2546
2023-03-29T10:35:23.742Z,973.2839
2023-03-29T10:36:25.173Z,973.2877
2023-03-29T10:37:26.613Z,973.3030
2023-03-29T10:38:28.037Z,973.2953
2023-03-29T10:39:29.446Z,973.3008
2023-03-29T10:40:30.947Z,973.3215
2023-03-29T10:41:32.305Z,973.3538
2023-03-29T10:42:33.754Z,973.3685
2023-03-29T10:43:35.170Z,973.3646
2023-03-29T10:44:36.638Z,973.3754
2023-03-29T10:45:38.043Z,973.3708
2023-03-29T10:46:39.496Z,973.3677
2023-03-29T10:47:40.930Z,973.3516
2023-03-29T10:48:42.309Z,973.3439
2023-03-29T10:49:43.741Z,973.3600
2023-03-29T10:50:45.165Z,973.3877
2023-03-29T10:51:46.593Z,973.3808
2023-03-29T10:52:48.022Z,973.3862
2023-03-29T10:53:49.434Z,973.3885
2023-03-29T10:54:50.891Z,973.3738
2023-03-29T10:55:52.309Z,973.4092
2023-03-29T10:56:53.739Z,973.4031
2023-03-29T10:57:55.182Z,973.3654
2023-03-29T10:58:56.625Z,973.3016
2023-03-29T10:59:58.042Z,973.2015
2023-03-29T11:00:59.491Z,973.1115
2023-03-29T11:02:00.910Z,973.0630
2023-03-29T11:03:02.377Z,973.0054
2023-03-29T11:04:03.873Z,972.9315
2023-03-29T11:05:05.211Z,972.8800
2023-03-29T11:06:06.597Z,972.8215
2023-03-29T11:07:08.062Z,972.7277
2023-03-29T11:08:09.486Z,972.6400
2023-03-29T11:09:10.886Z,972.5308
2023-03-29T11:10:12.369Z,972.4146
2023-03-29T11:11:13.739Z,972.4562
2023-03-29T11:12:16.423Z,972.5046
2023-03-29T11:13:16.588Z,972.4639
2023-03-29T11:14:18.032Z,972.4131
2023-03-29T11:15:19.445Z,972.3677
2023-03-29T11:16:20.998Z,972.1738
2023-03-29T11:17:22.390Z,972.1408
2023-03-29T11:18:23.739Z,972.1038
2023-03-29T11:19:25.177Z,972.0670
2023-03-29T11:20:26.573Z,972.0408
2023-03-29T11:21:28.069Z,972.0546
2023-03-29T11:22:29.431Z,972.1116
2023-03-29T11:23:30.866Z,972.1746
2023-03-29T11:24:32.286Z,972.2938
2023-03-29T11:25:33.709Z,972.4554
2023-03-29T11:26:35.205Z,972.4838
2023-03-29T11:27:36.582Z,972.4977
2023-03-29T11:28:37.988Z,972.5015
2023-03-29T11:29:39.432Z,972.5215
2023-03-29T11:30:40.845Z,972.5223
2023-03-29T11:31:42.344Z,972.5284
2023-03-29T11:32:43.725Z,972.5385
2023-03-29T11:33:45.157Z,972.5177
2023-03-29T11:34:46.530Z,972.4761
2023-03-29T11:35:48.131Z,972.4470
2023-03-29T11:36:49.389Z,972.4370
2023-03-29T11:37:50.825Z,972.4462
2023-03-29T11:38:52.242Z,972.4323
2023-03-29T11:39:53.690Z,972.4577
2023-03-29T11:40:55.094Z,972.4792
2023-03-29T11:41:56.564Z,972.4738
2023-03-29T11:42:57.950Z,972.4769
2023-03-29T11:43:59.375Z,972.4785
2023-03-29T11:45:00.810Z,972.4823
2023-03-29T11:46:02.277Z,972.4923
2023-03-29T11:47:03.741Z,972.4923
2023-03-29T11:48:05.176Z,972.4838
2023-03-29T11:49:06.518Z,972.4362
2023-03-29T11:50:07.945Z,972.3669
2023-03-29T11:51:09.365Z,972.3400
2023-03-29T11:52:10.797Z,972.3277
2023-03-29T11:53:12.241Z,972.3170
2023-03-29T11:54:13.641Z,972.3170
2023-03-29T11:55:15.069Z,972.2977
2023-03-29T11:56:16.491Z,972.2762
2023-03-29T11:57:17.999Z,972.2800
2023-03-29T11:58:19.330Z,972.2592
2023-03-29T11:59:20.747Z,972.2708
2023-03-29T12:00:22.176Z,972.2816
2023-03-29T12:01:23.585Z,972.3138